createdAt,value
2023-05-05T00:03:02.996Z,6
2023-05-05T00:07:18.352Z,6
2023-05-05T00:08:33.074Z,8
2023-05-05T00:14:03.275Z,9
2023-05-05T00:41:34.083Z,8
2023-05-05T00:47:04.247Z,9
2023-05-05T00:52:34.413Z,8
2023-05-05T00:58:04.609Z,9
2023-05-05T01:03:34.824Z,10
2023-05-05T01:07:24.117Z,10
2023-05-05T01:09:04.930Z,7
2023-05-05T01:14:35.139Z,11
2023-05-05T01:20:05.325Z,8
2023-05-05T01:47:36.151Z,7
2023-05-05T01:53:06.291Z,10
2023-05-05T02:04:06.644Z,13
2023-05-05T02:07:29.388Z,13
2023-05-05T02:09:36.812Z,7
2023-05-05T02:20:37.203Z,8
2023-05-05T02:26:07.330Z,12
2023-05-05T02:37:07.672Z,10
2023-05-05T02:42:37.905Z,8
2023-05-05T02:48:08.049Z,10
2023-05-05T03:04:38.550Z,8
2023-05-05T03:05:27.101Z,8
2023-05-05T03:10:08.895Z,11
2023-05-05T03:15:38.859Z,12
2023-05-05T03:32:09.408Z,8
2023-05-05T03:37:39.487Z,10
2023-05-05T03:48:39.904Z,8
2023-05-05T03:59:40.220Z,9
2023-05-05T04:05:28.748Z,9
2023-05-05T04:38:11.442Z,10
2023-05-05T04:43:41.588Z,14
2023-05-05T04:49:11.768Z,9
2023-05-05T05:00:12.253Z,10
2023-05-05T05:05:34.122Z,10
2023-05-05T05:11:12.388Z,8
2023-05-05T05:16:42.687Z,11
2023-05-05T05:22:12.747Z,10
2023-05-05T05:33:13.101Z,12
2023-05-05T05:38:43.287Z,9
2023-05-05T05:44:13.479Z,10
2023-05-05T05:49:43.598Z,15
2023-05-05T05:55:13.871Z,10
2023-05-05T06:05:39.567Z,10
2023-05-05T06:11:44.233Z,9
2023-05-05T06:17:14.482Z,12
2023-05-05T06:22:44.656Z,9
2023-05-05T06:28:14.863Z,8
2023-05-05T06:33:45.257Z,10
2023-05-05T06:39:16.115Z,11
2023-05-05T06:44:45.291Z,13
2023-05-05T06:50:15.615Z,10
2023-05-05T06:55:45.608Z,11
2023-05-05T07:01:15.869Z,12
2023-05-05T07:05:45.201Z,12
2023-05-05T07:06:45.921Z,10
2023-05-05T07:12:16.153Z,9
2023-05-05T07:17:46.295Z,11
2023-05-05T07:23:16.439Z,13
2023-05-05T07:28:46.692Z,10
2023-05-05T07:34:16.825Z,8
2023-05-05T07:39:46.915Z,12
2023-05-05T07:45:17.064Z,9
2023-05-05T07:50:47.378Z,10
2023-05-05T08:01:48.606Z,14
2023-05-05T08:05:51.759Z,14
2023-05-05T08:07:17.981Z,10
2023-05-05T08:12:47.985Z,12
2023-05-05T08:18:18.132Z,13
2023-05-05T08:23:48.353Z,8
2023-05-05T08:29:18.555Z,13
2023-05-05T08:34:48.725Z,11
2023-05-05T08:40:18.735Z,10
2023-05-05T08:45:48.877Z,11
2023-05-05T08:51:19.044Z,12
2023-05-05T08:56:49.209Z,10
2023-05-05T09:02:19.468Z,13
2023-05-05T09:05:56.140Z,13
2023-05-05T09:07:49.544Z,9
2023-05-05T09:13:19.887Z,13
2023-05-05T09:18:49.930Z,9
2023-05-05T09:24:20.048Z,14
2023-05-05T09:29:50.406Z,10
2023-05-05T09:35:20.452Z,13
2023-05-05T09:40:50.521Z,12
2023-05-05T09:46:20.766Z,13
2023-05-05T09:51:50.864Z,10
2023-05-05T09:57:21.009Z,11
2023-05-05T10:02:51.208Z,12
2023-05-05T10:06:01.647Z,12
2023-05-05T10:08:21.309Z,9
2023-05-05T10:13:51.581Z,11
2023-05-05T10:19:21.749Z,13
2023-05-05T10:30:22.185Z,11
2023-05-05T10:41:22.350Z,9
2023-05-05T10:46:52.512Z,11
2023-05-05T10:57:52.855Z,12
2023-05-05T11:03:23.057Z,13
2023-05-05T11:06:07.045Z,13
2023-05-05T11:08:53.163Z,16
2023-05-05T11:14:23.366Z,17
2023-05-05T11:19:53.848Z,21
2023-05-05T11:25:23.743Z,13
2023-05-05T11:30:53.892Z,15
2023-05-05T11:36:23.996Z,14
2023-05-05T11:47:24.277Z,12
2023-05-05T11:52:54.442Z,11
2023-05-05T11:58:24.579Z,12
2023-05-05T12:03:55.067Z,17
2023-05-05T12:06:12.700Z,17
2023-05-05T12:09:24.897Z,15
2023-05-05T12:14:55.072Z,14
2023-05-05T12:20:25.257Z,17
2023-05-05T12:25:55.377Z,10
2023-05-05T12:31:25.579Z,11
2023-05-05T12:36:55.738Z,13
2023-05-05T12:42:25.868Z,14
2023-05-05T12:47:56.116Z,11
2023-05-05T12:53:26.203Z,15
2023-05-05T12:58:56.384Z,13
2023-05-05T13:04:26.716Z,11
2023-05-05T13:06:18.163Z,11
2023-05-05T13:09:56.699Z,12
2023-05-05T13:20:56.993Z,16
2023-05-05T13:26:27.169Z,12
2023-05-05T13:31:57.463Z,13
2023-05-05T13:37:27.519Z,11
2023-05-05T13:42:57.702Z,14
2023-05-05T13:48:27.890Z,12
2023-05-05T13:53:58.019Z,10
2023-05-05T13:59:28.226Z,14
2023-05-05T14:04:58.492Z,13
2023-05-05T14:06:23.602Z,13
2023-05-05T14:10:28.503Z,12
2023-05-05T14:15:58.640Z,13
2023-05-05T14:21:28.810Z,15
2023-05-05T14:32:29.214Z,13
2023-05-05T14:37:59.316Z,14
2023-05-05T14:43:29.445Z,13
2023-05-05T15:00:00.029Z,12
2023-05-05T15:05:30.234Z,10
2023-05-05T15:06:29.049Z,10
2023-05-05T15:11:00.262Z,12
2023-05-05T15:16:30.808Z,11
2023-05-05T15:27:30.787Z,12
2023-05-05T15:38:31.127Z,13
2023-05-05T15:44:01.261Z,12
2023-05-05T15:49:31.427Z,11
2023-05-05T15:55:01.612Z,13
2023-05-05T16:00:31.801Z,17
2023-05-05T16:06:01.898Z,15
2023-05-05T16:06:34.552Z,15
2023-05-05T16:11:32.081Z,18
2023-05-05T16:17:02.295Z,16
2023-05-05T16:22:32.414Z,19
2023-05-05T16:28:02.536Z,20
2023-05-05T16:33:32.742Z,18
2023-05-05T16:39:02.963Z,19
2023-05-05T16:44:33.093Z,20
2023-05-05T16:50:03.334Z,19
2023-05-05T17:01:03.519Z,17
2023-05-05T17:06:40.007Z,13
2023-05-05T17:17:34.043Z,16
2023-05-05T17:28:34.357Z,15
2023-05-05T17:34:04.537Z,14
2023-05-05T17:39:34.660Z,7
2023-05-05T17:45:04.916Z,8
2023-05-05T17:50:35.103Z,10
2023-05-05T17:56:06.616Z,7
2023-05-05T18:01:35.377Z,9
2023-05-05T18:06:45.629Z,9
2023-05-05T18:12:35.790Z,11
2023-05-05T18:18:05.826Z,6
2023-05-05T18:40:06.512Z,8
2023-05-05T18:45:36.657Z,9
2023-05-05T18:56:36.922Z,8
2023-05-05T19:08:22.109Z,8
2023-05-05T19:24:07.720Z,10
2023-05-05T19:29:37.890Z,9
2023-05-05T19:35:08.350Z,10
2023-05-05T19:46:08.407Z,11
2023-05-05T19:51:38.500Z,10
2023-05-05T19:57:08.649Z,12
2023-05-05T20:02:38.974Z,10
2023-05-05T20:06:56.931Z,10
2023-05-05T20:08:09.041Z,9
2023-05-05T20:13:39.259Z,10
2023-05-05T20:24:39.533Z,11
2023-05-05T20:30:09.964Z,12
2023-05-05T20:35:39.923Z,11
2023-05-05T20:46:40.144Z,12
2023-05-05T20:52:10.259Z,11
2023-05-05T20:57:40.434Z,14
2023-05-05T21:03:10.656Z,12
2023-05-05T21:07:02.083Z,12
2023-05-05T21:14:10.973Z,15
2023-05-05T21:19:41.126Z,19
2023-05-05T21:25:11.242Z,18
2023-05-05T21:36:11.617Z,20
2023-05-05T21:47:11.930Z,24
2023-05-05T21:52:42.108Z,23
2023-05-05T21:58:12.255Z,22
2023-05-05T22:03:42.527Z,20
2023-05-05T22:07:07.649Z,20
2023-05-05T22:20:12.930Z,22
2023-05-05T22:25:43.118Z,24
2023-05-05T22:31:13.261Z,21
2023-05-05T22:36:43.419Z,22
2023-05-05T22:42:13.570Z,26
2023-05-05T22:47:43.729Z,23
2023-05-05T22:53:13.899Z,25
2023-05-05T22:58:44.089Z,24
2023-05-05T23:04:14.382Z,26
2023-05-05T23:07:13.095Z,26
2023-05-05T23:15:14.609Z,22
2023-05-05T23:20:44.890Z,19
2023-05-05T23:26:14.887Z,17
2023-05-05T23:31:45.048Z,20
2023-05-05T23:37:15.229Z,18
2023-05-05T23:42:45.365Z,15
2023-05-05T23:48:15.550Z,18
2023-05-05T23:53:45.712Z,19
2023-05-05T23:59:15.901Z,18
